»·PEaware :: UAL1508 KSEA-KGEG

UAL1508 :: KSEA-KGEG

FLIGHT INFORMATION

Flight Status: Arrived
Operator:
United Airlines
More flights by this operator :: More flights under this callsign
Pilot: Utku A. (15598)
Aircraft: BOEING 737-800
(B738)
More flights by this aircraft type
Origin: KSEA Seattle-Tacoma Intl
United States
Destination: KGEG Spokane Intl
United States
More flights between these airports :: More routes between these airports
Route: JEFPO1 JEFPO ZADON ZELAK ZIRAN ZOOMR ZOOMR1
File this flight plan on PilotEdge
Remarks:
Altitude:
(Current/Filed)
31,000ft
Speed:
(Current/Filed)
462kts
Departed: 06-Aug-18 08:22 PM
Arrived: 06-Aug-18 09:01 PM
Distance/Time
Traveled:
194nm/0:39
Distance/Time
To Go:
Arrived

Flight Plot

Page will automatically refresh every two minutes.

Flight plan parsing failed; only flown route is shown


Map Options




Map Legend


Flown Route
Filed Route
Departure Airport
Arrival Airport
Navaid (VOR, NDB)
Fix

Horizontal Profiles

Position Reports

Time Latitude Longitude Heading Altitude Ground
Speed
06-Aug-18 19:57 47.447411 -122.301892 17 395ft 0kts
06-Aug-18 19:58 47.447411 -122.301892 17 395ft 0kts
06-Aug-18 19:59 47.447411 -122.301892 17 395ft 0kts
06-Aug-18 20:00 47.447411 -122.301892 17 395ft 0kts
06-Aug-18 20:01 47.447411 -122.301892 17 395ft 0kts
06-Aug-18 20:02 47.447411 -122.301892 17 395ft 0kts
06-Aug-18 20:03 47.447411 -122.301892 17 395ft 0kts
06-Aug-18 20:04 47.447411 -122.301892 17 395ft 0kts
06-Aug-18 20:05 47.447411 -122.301892 17 395ft 0kts
06-Aug-18 20:06 47.447411 -122.301892 17 395ft 0kts
06-Aug-18 20:07 47.447411 -122.301892 17 395ft 0kts
06-Aug-18 20:08 47.447411 -122.301892 17 395ft 0kts
06-Aug-18 20:09 47.447411 -122.301892 17 395ft 0kts
06-Aug-18 20:10 47.447411 -122.301892 17 395ft 0kts
06-Aug-18 20:11 47.447086 -122.301903 339 394ft 2kts
06-Aug-18 20:12 47.446788 -122.301197 262 390ft 2kts
06-Aug-18 20:13 47.446831 -122.300970 249 389ft 0kts
06-Aug-18 20:14 47.446830 -122.300976 249 389ft 0kts
06-Aug-18 20:15 47.447089 -122.303043 306 396ft 8kts
06-Aug-18 20:16 47.447823 -122.304447 307 399ft 5kts
06-Aug-18 20:17 47.447771 -122.306253 196 400ft 14kts
06-Aug-18 20:18 47.442962 -122.306344 180 384ft 17kts
06-Aug-18 20:19 47.437669 -122.306396 180 365ft 18kts
06-Aug-18 20:20 47.433898 -122.305588 180 339ft 16kts
06-Aug-18 20:21 47.431827 -122.306351 238 324ft 0kts
06-Aug-18 20:22 47.431747 -122.306784 264 323ft 4kts
06-Aug-18 20:23 47.434776 -122.308028 0 342ft 68kts
06-Aug-18 20:24 47.475139 -122.306971 359 2035ft 168kts
06-Aug-18 20:25 47.523534 -122.308604 356 4011ft 191kts
06-Aug-18 20:26 47.568004 -122.255513 83 5306ft 281kts
06-Aug-18 20:27 47.567743 -122.136771 92 8370ft 298kts
06-Aug-18 20:28 47.565929 -122.009633 92 10800ft 331kts
06-Aug-18 20:29 47.563911 -121.870525 93 13461ft 347kts
06-Aug-18 20:30 47.562055 -121.724920 92 15891ft 363kts
06-Aug-18 20:31 47.560013 -121.572345 92 18118ft 379kts
06-Aug-18 20:32 47.557585 -121.413567 92 20181ft 395kts
06-Aug-18 20:33 47.554633 -121.250841 93 22032ft 409kts
06-Aug-18 20:34 47.551237 -121.080725 91 23842ft 419kts
06-Aug-18 20:35 47.547846 -120.907654 91 25595ft 426kts
06-Aug-18 20:36 47.544612 -120.730244 90 26975ft 438kts
06-Aug-18 20:37 47.541481 -120.548260 90 28279ft 448kts
06-Aug-18 20:38 47.538709 -120.392873 92 29331ft 456kts
06-Aug-18 20:39 47.528558 -120.208925 94 30685ft 457kts
06-Aug-18 20:40 47.515064 -119.987011 94 31022ft 479kts
06-Aug-18 20:41 47.503197 -119.786961 93 31021ft 498kts
06-Aug-18 20:42 47.493334 -119.616012 93 29966ft 497kts
06-Aug-18 20:43 47.482017 -119.413858 93 28203ft 498kts
06-Aug-18 20:44 47.471201 -119.214642 94 26425ft 483kts
06-Aug-18 20:45 47.461289 -119.025935 94 24568ft 438kts
06-Aug-18 20:46 47.452393 -118.853337 93 22087ft 416kts
06-Aug-18 20:47 47.444057 -118.686844 93 19824ft 400kts
06-Aug-18 20:48 47.436178 -118.525657 93 17825ft 387kts
06-Aug-18 20:49 47.428744 -118.370237 93 15831ft 373kts
06-Aug-18 20:50 47.441234 -118.227063 72 13893ft 360kts
06-Aug-18 20:51 47.470270 -118.087566 72 11889ft 351kts
06-Aug-18 20:52 47.497197 -117.956826 72 10727ft 311kts
06-Aug-18 20:53 47.531379 -117.842586 55 9529ft 301kts
06-Aug-18 20:54 47.582050 -117.746315 45 8130ft 294kts
06-Aug-18 20:55 47.637168 -117.661988 44 7205ft 273kts
06-Aug-18 20:56 47.687586 -117.584838 44 6641ft 245kts
06-Aug-18 20:57 47.732229 -117.516291 44 5275ft 220kts
06-Aug-18 20:58 47.734862 -117.435654 116 3897ft 203kts
06-Aug-18 20:59 47.695359 -117.417989 226 3788ft 161kts
06-Aug-18 21:00 47.664770 -117.467599 225 3375ft 166kts
06-Aug-18 21:01 47.633357 -117.514972 226 2445ft 159kts
06-Aug-18 21:02 47.617432 -117.539022 225 2372ft 1kts
06-Aug-18 21:03 47.616894 -117.540707 269 2373ft 13kts
06-Aug-18 21:04 47.619331 -117.540197 45 2368ft 19kts
06-Aug-18 21:05 47.622705 -117.535294 13 2362ft 8kts
06-Aug-18 21:06 47.624141 -117.535299 324 2361ft 4kts
06-Aug-18 21:07 47.624314 -117.535509 321 2361ft 0kts
06-Aug-18 21:08 47.624314 -117.535509 321 2361ft 0kts
06-Aug-18 21:09 47.624314 -117.535509 321 2361ft 0kts
06-Aug-18 21:10 47.624314 -117.535509 321 2361ft 0kts
06-Aug-18 21:11 47.624314 -117.535509 321 2361ft 0kts
06-Aug-18 21:12 47.624314 -117.535509 321 2361ft 0kts
06-Aug-18 21:13 47.624314 -117.535509 321 2361ft 0kts
06-Aug-18 21:14 47.624314 -117.535509 321 2361ft 0kts
06-Aug-18 21:15 47.624314 -117.535509 321 2361ft 0kts

Navigation Log

Ident Type
Flight plan parsing failed, navigation log unavailable